Time;durP1;ratioP1;P1;durP2;ratioP2;P2;SDS_P1;SDS_P2;PMS_P1;PMS_P2;Temp;Humidity;BMP_temperature;BMP_pressure;BME280_temperature;BME280_humidity;BME280_pressure;Samples;Min_cycle;Max_cycle;Signal;HPM_P1;HPM_P2
2021/08/20 00:01:36;;;;;;;13.77;7.30;;;;;;;20.31;65.14;99339.41;5121306;28;20095;-59
2021/08/20 00:04:23;;;;;;;11.18;7.80;;;;;;;20.26;65.50;99344.97;5122777;28;20232;-60
2021/08/20 00:07:09;;;;;;;15.35;7.90;;;;;;;20.20;65.62;99347.19;5120104;28;20027;-60
2021/08/20 00:09:56;;;;;;;14.45;7.32;;;;;;;20.23;65.36;99349.59;5121542;28;20277;-60
2021/08/20 00:12:42;;;;;;;16.10;8.18;;;;;;;20.24;65.98;99349.50;5121081;28;20027;-60
2021/08/20 00:15:30;;;;;;;13.80;8.10;;;;;;;20.25;66.15;99348.56;5121400;28;20027;-59
2021/08/20 00:18:16;;;;;;;16.73;7.15;;;;;;;20.23;66.23;99363.56;5101577;28;20034;-58
2021/08/20 00:21:02;;;;;;;18.20;7.40;;;;;;;20.20;66.38;99361.16;5102095;28;20275;-57
2021/08/20 00:23:48;;;;;;;13.48;7.35;;;;;;;20.20;65.72;99357.69;5099637;28;20052;-58
2021/08/20 00:26:34;;;;;;;16.13;7.22;;;;;;;20.15;66.54;99358.84;5093098;28;20024;-60
2021/08/20 00:29:20;;;;;;;14.25;6.97;;;;;;;20.21;66.54;99367.25;5101120;28;20040;-58
2021/08/20 00:32:07;;;;;;;15.80;7.15;;;;;;;20.11;65.96;99359.97;5100618;28;20107;-58
2021/08/20 00:34:53;;;;;;;12.82;7.00;;;;;;;20.18;65.71;99381.47;5100223;28;20321;-59
2021/08/20 00:37:39;;;;;;;13.98;7.10;;;;;;;20.16;65.65;99380.72;5123830;28;20040;-59
2021/08/20 00:40:33;;;;;;;10.73;6.85;;;;;;;20.18;65.96;99386.72;5125667;28;20043;-59
2021/08/20 00:43:19;;;;;;;11.60;7.00;;;;;;;20.09;66.54;99380.25;5135715;27;20019;-59
2021/08/20 00:46:06;;;;;;;13.57;6.40;;;;;;;20.07;67.29;99376.06;5140345;27;20023;-59
2021/08/20 00:48:52;;;;;;;11.48;7.07;;;;;;;20.03;68.10;99371.97;5125394;28;20107;-59
2021/08/20 00:51:39;;;;;;;10.65;7.00;;;;;;;19.99;68.37;99361.66;5125591;28;20028;-59
2021/08/20 00:54:26;;;;;;;12.20;6.72;;;;;;;19.97;69.04;99366.16;5116749;28;20045;-59
2021/08/20 00:57:12;;;;;;;11.82;6.40;;;;;;;19.82;69.67;99377.66;5124938;28;20028;-59
2021/08/20 00:59:58;;;;;;;10.95;6.45;;;;;;;19.80;70.16;99372.50;5124734;28;20040;-60
2021/08/20 01:02:46;;;;;;;11.77;7.03;;;;;;;19.79;70.47;99375.22;5124764;28;20336;-60
2021/08/20 01:05:32;;;;;;;11.90;6.75;;;;;;;19.82;70.10;99375.91;5112662;28;20251;-60
2021/08/20 01:08:22;;;;;;;8.88;6.13;;;;;;;19.78;70.87;99377.00;5104668;28;20316;-59
2021/08/20 01:11:10;;;;;;;10.95;5.85;;;;;;;19.69;71.89;99389.88;5104215;28;20062;-59
2021/08/20 01:13:56;;;;;;;11.27;6.47;;;;;;;19.65;72.00;99382.19;5105062;28;20027;-58
2021/08/20 01:16:42;;;;;;;12.95;7.00;;;;;;;19.63;71.66;99384.06;5113045;28;20031;-58
2021/08/20 01:19:31;;;;;;;7.03;5.50;;;;;;;19.34;71.98;99336.03;5124966;28;20023;-60
2021/08/20 01:22:17;;;;;;;11.95;6.75;;;;;;;19.62;72.00;99382.41;5125039;28;20023;-58
2021/08/20 01:25:04;;;;;;;12.02;6.50;;;;;;;19.61;72.41;99375.44;5110151;28;20343;-58
2021/08/20 01:28:04;;;;;;;8.95;5.70;;;;;;;19.57;72.62;99384.47;5105968;28;20059;-58
2021/08/20 01:31:22;;;;;;;11.05;6.32;;;;;;;19.58;73.10;99393.19;5103897;28;20094;-59
2021/08/20 01:34:08;;;;;;;9.07;6.35;;;;;;;19.53;73.61;99395.28;5082892;28;20040;-58
2021/08/20 01:36:54;;;;;;;12.18;6.50;;;;;;;19.53;73.14;99392.66;5115702;28;20046;-59
2021/08/20 01:39:40;;;;;;;11.23;6.43;;;;;;;19.59;73.49;99392.25;5123946;28;20393;-59
2021/08/20 01:42:26;;;;;;;8.50;6.10;;;;;;;19.32;74.72;99395.66;5124632;28;20019;-59
2021/08/20 01:48:57;;;;;;;13.18;6.53;;;;;;;19.13;75.16;99372.34;5102107;28;20208;-59
2021/08/20 01:51:43;;;;;;;9.57;5.90;;;;;;;19.33;74.58;99407.88;5103580;28;20100;-59
2021/08/20 01:54:37;;;;;;;7.95;5.88;;;;;;;19.38;74.73;99404.94;5103950;28;20020;-59
2021/08/20 01:57:23;;;;;;;9.73;6.10;;;;;;;19.41;74.78;99410.88;5120405;28;20023;-59
2021/08/20 02:00:11;;;;;;;7.88;5.97;;;;;;;19.42;74.54;99417.78;5124571;28;20328;-58
2021/08/20 02:02:56;;;;;;;7.85;5.60;;;;;;;19.46;75.16;99413.19;5123635;28;20312;-59
2021/08/20 02:05:42;;;;;;;9.20;5.68;;;;;;;19.48;74.94;99412.16;5123034;28;20415;-58
2021/08/20 02:08:28;;;;;;;9.70;6.03;;;;;;;19.43;75.26;99408.97;5124219;28;20077;-59
2021/08/20 02:11:14;;;;;;;8.45;5.60;;;;;;;19.34;75.38;99408.69;5123934;28;20020;-59
2021/08/20 02:14:00;;;;;;;11.45;5.78;;;;;;;19.38;75.06;99415.44;5123987;28;20343;-59
2021/08/20 02:16:46;;;;;;;8.88;5.85;;;;;;;19.31;75.41;99415.84;5106606;28;20225;-60
2021/08/20 02:19:35;;;;;;;9.13;5.80;;;;;;;19.38;76.26;99415.44;5103584;28;20383;-59
2021/08/20 02:22:21;;;;;;;8.90;6.18;;;;;;;19.43;76.18;99416.84;5103995;28;20405;-59
2021/08/20 02:25:07;;;;;;;8.25;5.60;;;;;;;19.48;75.59;99420.03;5103195;28;20031;-58
2021/08/20 02:27:53;;;;;;;10.48;5.82;;;;;;;19.46;75.11;99413.19;5122226;28;20047;-59
2021/08/20 02:30:39;;;;;;;8.85;5.70;;;;;;;19.51;75.02;99412.91;5128354;27;20038;-58
2021/08/20 02:33:25;;;;;;;10.95;5.85;;;;;;;19.43;75.89;99408.13;5142717;27;20023;-60
2021/08/20 02:36:12;;;;;;;8.40;5.82;;;;;;;19.45;75.35;99399.22;5138150;27;20031;-58
2021/08/20 02:38:58;;;;;;;10.63;5.38;;;;;;;19.49;75.59;99403.31;5123593;28;20024;-57
2021/08/20 02:41:44;;;;;;;10.32;5.25;;;;;;;19.53;75.56;99392.66;5122674;28;20024;-57
2021/08/20 02:44:30;;;;;;;9.85;5.25;;;;;;;19.47;75.88;99402.59;5122441;28;20324;-58
2021/08/20 02:47:16;;;;;;;11.50;6.32;;;;;;;19.34;75.98;99403.44;5109746;28;20028;-58
2021/08/20 02:50:03;;;;;;;10.35;5.78;;;;;;;19.35;76.53;99403.34;5102322;28;20076;-58
2021/08/20 02:52:49;;;;;;;8.77;5.65;;;;;;;19.40;76.91;99408.34;5102849;28;20293;-58
2021/08/20 02:55:35;;;;;;;10.57;6.63;;;;;;;19.44;76.36;99405.41;5102867;28;20308;-58
2021/08/20 02:58:21;;;;;;;7.05;5.53;;;;;;;19.43;76.11;99402.88;5101200;28;20051;-59
2021/08/20 03:01:06;;;;;;;12.55;5.90;;;;;;;19.49;75.65;99413.00;5103215;28;20247;-59
2021/08/20 03:03:52;;;;;;;8.55;6.07;;;;;;;19.47;76.03;99415.72;5105592;28;20038;-59
2021/08/20 03:06:38;;;;;;;9.88;5.68;;;;;;;19.53;76.04;99411.88;5119129;28;20107;-58
2021/08/20 03:09:32;;;;;;;9.38;5.90;;;;;;;19.52;76.44;99417.22;5123229;28;20040;-58
2021/08/20 03:12:18;;;;;;;7.97;5.85;;;;;;;19.49;76.33;99413.00;5122750;28;20064;-58
2021/08/20 03:15:05;;;;;;;9.10;6.55;;;;;;;19.55;76.40;99415.22;5122247;28;20039;-58
2021/08/20 03:17:51;;;;;;;10.48;5.78;;;;;;;19.62;76.14;99415.69;5104788;28;20028;-59
2021/08/20 03:20:40;;;;;;;9.55;5.95;;;;;;;19.53;76.44;99413.66;5102562;28;20386;-57
2021/08/20 03:23:26;;;;;;;8.80;6.57;;;;;;;19.52;76.10;99417.22;5101978;28;20020;-58
2021/08/20 03:26:14;;;;;;;13.73;7.13;;;;;;;19.57;75.47;99421.25;5105937;28;20095;-58
2021/08/20 03:29:00;;;;;;;10.45;6.90;;;;;;;19.66;75.59;99425.06;5122461;28;20034;-58
2021/08/20 03:31:46;;;;;;;13.40;7.25;;;;;;;19.73;75.03;99434.25;5122981;28;20051;-58
2021/08/20 03:34:32;;;;;;;12.45;7.13;;;;;;;19.78;75.08;99426.94;5122178;28;20024;-58
2021/08/20 03:37:18;;;;;;;14.70;7.45;;;;;;;19.73;75.49;99431.63;5109294;28;20024;-58
2021/08/20 03:40:05;;;;;;;11.68;7.88;;;;;;;19.67;75.73;99427.59;5102864;28;20036;-59
2021/08/20 03:42:55;;;;;;;16.10;7.85;;;;;;;19.67;75.48;99413.63;5101107;28;20111;-59
2021/08/20 03:45:40;;;;;;;15.02;7.40;;;;;;;19.79;74.78;99417.28;5100806;28;20024;-59
2021/08/20 03:48:26;;;;;;;13.55;7.47;;;;;;;19.57;73.97;99375.75;5104084;28;20024;-58
2021/08/20 03:51:13;;;;;;;8.80;6.60;;;;;;;19.81;73.49;99425.94;5122021;28;20107;-59
2021/08/20 03:53:59;;;;;;;14.35;7.55;;;;;;;19.75;73.47;99424.50;5122141;28;20016;-60
2021/08/20 03:56:45;;;;;;;11.55;6.82;;;;;;;19.68;74.06;99436.31;5115744;28;20030;-60
2021/08/20 03:59:31;;;;;;;10.65;6.93;;;;;;;19.70;73.56;99431.00;5122485;28;20242;-59
2021/08/20 04:02:17;;;;;;;17.17;7.32;;;;;;;19.72;74.20;99436.97;5122028;28;20031;-58
2021/08/20 04:05:03;;;;;;;10.90;7.03;;;;;;;19.78;72.55;99436.56;5121487;28;20090;-59
2021/08/20 04:07:49;;;;;;;12.65;7.05;;;;;;;19.82;72.08;99444.22;5121741;28;20020;-60
2021/08/20 04:10:35;;;;;;;16.48;7.15;;;;;;;19.83;71.79;99445.88;5122910;28;20031;-59
2021/08/20 04:13:21;;;;;;;15.52;7.15;;;;;;;19.86;71.44;99452.75;5126698;28;20051;-59
2021/08/20 04:16:07;;;;;;;11.23;7.43;;;;;;;19.89;71.91;99446.44;5123751;28;20078;-59
2021/08/20 04:18:53;;;;;;;10.65;6.70;;;;;;;19.87;72.62;99449.19;5104984;28;20055;-59
2021/08/20 04:21:39;;;;;;;14.63;7.57;;;;;;;19.96;71.80;99443.31;5106374;28;20031;-59
2021/08/20 04:24:24;;;;;;;13.23;7.93;;;;;;;20.07;71.29;99439.16;5115000;28;20020;-58
2021/08/20 04:27:10;;;;;;;15.55;8.73;;;;;;;20.15;69.20;99431.59;5124209;28;20020;-59
2021/08/20 04:29:56;;;;;;;15.82;7.45;;;;;;;20.21;70.08;99430.34;5124919;28;20027;-59
2021/08/20 04:32:42;;;;;;;13.52;8.05;;;;;;;20.34;69.48;99436.50;5126279;28;20027;-59
2021/08/20 04:35:28;;;;;;;15.63;7.85;;;;;;;20.40;69.21;99437.91;5126212;28;20024;-60
2021/08/20 04:38:14;;;;;;;15.05;7.95;;;;;;;20.48;68.82;99441.69;5105868;28;20032;-59
2021/08/20 04:41:00;;;;;;;15.15;7.22;;;;;;;20.63;68.43;99442.44;5104424;28;20024;-59
2021/08/20 04:43:46;;;;;;;23.52;13.30;;;;;;;20.66;68.45;99426.47;5104883;28;20240;-59
2021/08/20 04:46:32;;;;;;;20.05;8.77;;;;;;;20.81;68.12;99434.31;5110720;28;20325;-60
2021/08/20 04:49:18;;;;;;;17.55;8.55;;;;;;;20.92;67.45;99430.91;5125502;28;20020;-59
2021/08/20 04:52:04;;;;;;;15.68;8.15;;;;;;;20.81;67.24;99421.16;5124975;28;20067;-59
2021/08/20 04:54:50;;;;;;;14.90;7.90;;;;;;;20.96;66.13;99424.50;5125175;28;20031;-61
2021/08/20 04:57:36;;;;;;;15.98;7.47;;;;;;;21.01;66.57;99422.41;5118209;28;20074;-59
2021/08/20 05:00:22;;;;;;;14.57;7.38;;;;;;;20.97;66.65;99421.75;5120148;28;20035;-59
2021/08/20 05:03:08;;;;;;;15.10;7.50;;;;;;;20.93;63.68;99427.34;5114723;28;20023;-59
2021/08/20 05:05:54;;;;;;;11.20;6.82;;;;;;;20.95;64.37;99425.44;5119809;28;20034;-59
2021/08/20 05:08:40;;;;;;;12.88;6.50;;;;;;;21.08;65.18;99428.94;5115030;28;20076;-60
2021/08/20 05:11:27;;;;;;;14.10;7.22;;;;;;;21.08;64.98;99423.66;5120470;28;20094;-59
2021/08/20 05:14:13;;;;;;;11.20;7.22;;;;;;;21.08;65.67;99425.44;5119932;28;20011;-59
2021/08/20 05:16:59;;;;;;;15.38;6.38;;;;;;;21.12;66.33;99432.19;5117094;28;20047;-62
2021/08/20 05:19:45;;;;;;;18.60;7.13;;;;;;;21.21;66.38;99428.91;5117194;28;20247;-62
2021/08/20 05:22:43;;;;;;;13.98;6.55;;;;;;;21.28;65.86;99426.69;5115588;28;20314;-62
2021/08/20 05:25:34;;;;;;;11.05;6.90;;;;;;;21.31;67.23;99426.47;5103701;28;20062;-61
2021/08/20 05:28:20;;;;;;;12.55;7.15;;;;;;;21.36;66.34;99430.47;5121998;28;20114;-62
2021/08/20 05:31:06;;;;;;;9.23;6.03;;;;;;;21.36;65.65;99424.34;5111784;28;20028;-62
2021/08/20 05:33:52;;;;;;;12.32;6.25;;;;;;;21.42;64.59;99434.47;5115938;28;20012;-62
2021/08/20 05:36:38;;;;;;;11.50;6.00;;;;;;;21.45;63.57;99433.38;5098714;28;20032;-63
2021/08/20 05:39:25;;;;;;;9.60;5.93;;;;;;;21.48;64.86;99439.28;5112797;28;20117;-63
2021/08/20 05:42:11;;;;;;;14.93;6.28;;;;;;;21.56;65.61;99436.13;5124343;27;20035;-62
2021/08/20 05:44:57;;;;;;;8.38;5.70;;;;;;;21.63;64.38;99431.28;5123684;28;20221;-62
2021/08/20 05:47:43;;;;;;;10.70;5.60;;;;;;;21.74;63.29;99426.06;5119746;28;20020;-62
2021/08/20 05:50:28;;;;;;;9.63;5.28;;;;;;;21.84;63.49;99429.72;5117970;28;20020;-61
2021/08/20 05:53:14;;;;;;;11.30;5.38;;;;;;;21.86;64.22;99430.47;5115771;28;20022;-61
2021/08/20 05:56:00;;;;;;;11.43;5.63;;;;;;;21.89;62.67;99429.41;5115722;28;20232;-60
2021/08/20 05:58:47;;;;;;;12.10;5.40;;;;;;;21.98;62.29;99430.53;5110484;28;20081;-60
2021/08/20 06:01:33;;;;;;;11.88;5.85;;;;;;;22.03;62.27;99437.16;5113772;28;20222;-59
2021/08/20 06:04:19;;;;;;;10.07;5.28;;;;;;;22.08;61.81;99436.81;5103056;28;20047;-58
2021/08/20 06:07:07;;;;;;;13.30;5.75;;;;;;;22.14;62.17;99441.63;5118480;28;20228;-58
2021/08/20 06:09:52;;;;;;;10.77;5.45;;;;;;;22.19;61.81;99442.13;5116696;28;20031;-58
2021/08/20 06:12:38;;;;;;;6.05;4.60;;;;;;;22.25;61.75;99440.84;5116426;28;20024;-58
2021/08/20 06:15:24;;;;;;;11.32;5.18;;;;;;;22.24;60.52;99436.50;5111957;28;20031;-58
2021/08/20 06:18:10;;;;;;;9.00;5.07;;;;;;;22.28;61.65;99435.34;5119063;28;20061;-59
2021/08/20 06:20:56;;;;;;;11.93;5.30;;;;;;;22.38;60.91;99444.28;5110952;28;20059;-58
2021/08/20 06:23:42;;;;;;;11.73;5.30;;;;;;;22.37;60.94;99436.47;5113942;28;20019;-59
2021/08/20 06:26:28;;;;;;;6.38;4.57;;;;;;;22.45;59.92;99439.38;5116932;28;20118;-58
2021/08/20 06:29:20;;;;;;;6.93;4.82;;;;;;;22.10;57.97;99390.03;5108411;28;20027;-58
2021/08/20 06:32:06;;;;;;;7.95;4.57;;;;;;;22.54;58.83;99441.31;5118870;28;20020;-58
2021/08/20 06:34:52;;;;;;;6.75;4.00;;;;;;;22.62;57.96;99440.75;5105911;28;20340;-58
2021/08/20 06:37:38;;;;;;;9.63;4.47;;;;;;;22.59;58.79;99435.72;5118036;28;20126;-59
2021/08/20 06:40:23;;;;;;;6.38;4.15;;;;;;;22.65;57.59;99429.13;5118368;28;20040;-58
2021/08/20 06:43:09;;;;;;;9.32;4.80;;;;;;;22.74;57.71;99439.81;5114231;28;20098;-59
2021/08/20 06:45:55;;;;;;;9.18;5.22;;;;;;;22.85;56.83;99441.63;5118115;28;20026;-59
2021/08/20 06:48:41;;;;;;;11.65;4.63;;;;;;;22.88;57.18;99428.19;5118636;28;20024;-59
2021/08/20 06:51:27;;;;;;;5.45;4.20;;;;;;;22.95;55.85;99425.94;5118496;28;20098;-58
2021/08/20 06:54:13;;;;;;;6.90;4.30;;;;;;;22.91;55.84;99425.31;5115618;28;20019;-58
2021/08/20 06:56:59;;;;;;;10.18;5.70;;;;;;;22.89;53.61;99421.13;5120545;28;20027;-59
2021/08/20 06:59:45;;;;;;;8.30;5.35;;;;;;;23.00;54.34;99418.50;5119192;28;20058;-57
2021/08/20 07:02:31;;;;;;;11.88;5.28;;;;;;;23.04;53.72;99425.19;5101024;28;20256;-57
2021/08/20 07:05:17;;;;;;;8.32;4.47;;;;;;;23.04;52.68;99417.28;5118567;28;20026;-58
2021/08/20 07:08:06;;;;;;;6.03;4.50;;;;;;;23.16;53.81;99396.16;5123213;28;20098;-58
2021/08/20 07:10:54;;;;;;;6.43;4.43;;;;;;;23.48;53.98;99411.28;5122287;28;20255;-59
2021/08/20 07:13:40;;;;;;;12.45;5.82;;;;;;;23.53;53.96;99409.09;5122050;28;20023;-58
2021/08/20 07:16:27;;;;;;;6.85;4.45;;;;;;;23.72;52.48;99411.97;5100014;28;20088;-58
2021/08/20 07:19:13;;;;;;;8.38;5.03;;;;;;;23.73;51.97;99420.75;5111500;28;20105;-57
2021/08/20 07:21:59;;;;;;;10.43;5.25;;;;;;;23.81;52.67;99417.47;5103436;28;20023;-58
2021/08/20 07:24:44;;;;;;;7.88;5.20;;;;;;;23.90;54.26;99422.03;5120319;28;20028;-58
2021/08/20 07:27:30;;;;;;;9.38;4.93;;;;;;;23.94;53.43;99413.75;5113803;28;20028;-58
2021/08/20 07:30:16;;;;;;;10.68;4.72;;;;;;;23.92;52.71;99412.19;5122132;28;20031;-57
2021/08/20 07:33:03;;;;;;;8.02;4.65;;;;;;;23.94;54.18;99424.31;5122624;28;20042;-58
2021/08/20 07:35:49;;;;;;;11.13;4.90;;;;;;;23.91;53.14;99418.44;5096040;28;20063;-57
2021/08/20 07:38:35;;;;;;;11.70;5.25;;;;;;;23.95;52.69;99410.09;5122771;28;20115;-57
2021/08/20 07:41:21;;;;;;;11.05;5.82;;;;;;;23.88;53.33;99413.41;5121687;28;20035;-58
2021/08/20 07:44:13;;;;;;;11.43;5.20;;;;;;;23.94;53.10;99411.09;5120883;28;20030;-58
2021/08/20 07:47:00;;;;;;;13.02;6.05;;;;;;;23.95;54.40;99411.94;5115731;28;20218;-58
2021/08/20 07:49:45;;;;;;;8.38;4.72;;;;;;;23.88;50.92;99414.22;5101901;28;20020;-58
2021/08/20 07:52:31;;;;;;;10.05;4.90;;;;;;;23.91;53.22;99414.00;5102167;28;20032;-58
2021/08/20 07:55:17;;;;;;;10.88;4.70;;;;;;;23.93;52.73;99412.06;5100475;28;20059;-58
2021/08/20 07:58:03;;;;;;;8.32;5.35;;;;;;;24.01;52.78;99411.41;5116631;28;20098;-59
2021/08/20 08:00:49;;;;;;;13.77;6.00;;;;;;;24.06;52.39;99405.75;5106707;28;20531;-58
2021/08/20 08:03:35;;;;;;;7.85;5.25;;;;;;;24.02;52.55;99404.34;5121001;28;20027;-59
2021/08/20 08:06:23;;;;;;;7.35;4.38;;;;;;;24.07;49.73;99407.44;5120631;28;20324;-59
2021/08/20 08:09:09;;;;;;;7.70;4.65;;;;;;;24.18;48.76;99412.66;5118028;28;20391;-59
2021/08/20 08:11:55;;;;;;;7.97;4.15;;;;;;;24.16;48.94;99404.03;5121144;28;20102;-58
2021/08/20 08:14:41;;;;;;;8.63;5.35;;;;;;;24.22;51.09;99408.81;5120882;28;20266;-58
2021/08/20 08:17:27;;;;;;;7.07;4.22;;;;;;;24.23;50.31;99399.06;5112092;28;20027;-57
2021/08/20 08:20:14;;;;;;;9.40;4.88;;;;;;;24.12;48.83;99406.06;5100185;28;20347;-58
2021/08/20 08:23:00;;;;;;;5.80;4.38;;;;;;;24.10;49.79;99404.56;5142014;28;20115;-60
2021/08/20 08:25:46;;;;;;;9.80;4.90;;;;;;;24.10;51.21;99399.25;5135241;28;20024;-58
2021/08/20 08:28:32;;;;;;;6.45;4.00;;;;;;;23.99;48.90;99401.94;5121682;28;20031;-60
2021/08/20 08:31:18;;;;;;;8.98;4.10;;;;;;;24.24;49.70;99404.25;5132546;28;20083;-58
2021/08/20 08:34:04;;;;;;;5.38;4.18;;;;;;;24.28;50.37;99395.09;5141070;28;20019;-58
2021/08/20 08:36:50;;;;;;;9.75;4.68;;;;;;;24.28;49.19;99396.88;5136068;28;20198;-58
2021/08/20 08:39:36;;;;;;;7.97;4.55;;;;;;;24.37;51.11;99396.13;5114295;28;20080;-57
2021/08/20 08:42:22;;;;;;;11.13;5.05;;;;;;;24.33;51.41;99393.81;5106294;28;20020;-58
2021/08/20 08:45:08;;;;;;;6.35;4.28;;;;;;;24.44;51.05;99389.34;5120625;28;20294;-59
2021/08/20 08:47:56;;;;;;;9.23;4.70;;;;;;;24.56;50.54;99392.75;5106836;28;20024;-58
2021/08/20 08:50:46;;;;;;;9.85;4.53;;;;;;;24.74;48.65;99408.94;5100065;28;20028;-58
2021/08/20 08:53:32;;;;;;;6.65;4.20;;;;;;;24.80;48.94;99379.25;5099936;28;20012;-58
2021/08/20 08:56:19;;;;;;;5.65;3.95;;;;;;;24.98;49.00;99389.22;5107128;28;20329;-58
2021/08/20 08:59:05;;;;;;;7.75;4.40;;;;;;;25.15;49.50;99393.06;5123201;28;20311;-58
2021/08/20 09:01:51;;;;;;;7.50;4.20;;;;;;;25.22;48.25;99396.84;5125393;28;20028;-58
2021/08/20 09:04:37;;;;;;;7.85;4.22;;;;;;;25.25;48.17;99383.31;5124826;28;20034;-58
2021/08/20 09:07:24;;;;;;;10.07;4.60;;;;;;;25.40;48.48;99402.38;5124495;28;20027;-58
2021/08/20 09:10:13;;;;;;;9.02;5.30;;;;;;;25.51;48.06;99401.44;5124282;28;20039;-57
2021/08/20 09:13:02;;;;;;;9.68;4.38;;;;;;;25.55;46.46;99394.88;5125062;28;20024;-58
2021/08/20 09:16:13;;;;;;;8.80;4.10;;;;;;;25.35;47.67;99361.34;5124482;28;20019;-58
2021/08/20 09:19:15;;;;;;;10.50;4.80;;;;;;;25.61;47.81;99394.34;5104623;28;20036;-58
2021/08/20 09:22:10;;;;;;;7.65;5.45;;;;;;;25.54;46.88;99379.97;5104498;28;20099;-59
2021/08/20 09:24:55;;;;;;;7.25;4.35;;;;;;;25.56;47.86;99401.03;5104415;28;20019;-58
2021/08/20 09:27:41;;;;;;;7.85;4.28;;;;;;;25.61;47.87;99393.50;5116254;28;20019;-58
2021/08/20 09:30:27;;;;;;;7.63;4.13;;;;;;;25.67;48.07;99404.41;5125981;28;20034;-58
2021/08/20 09:33:16;;;;;;;8.73;4.63;;;;;;;25.52;46.43;99408.41;5135758;27;20324;-59
2021/08/20 09:36:06;;;;;;;6.50;4.03;;;;;;;25.61;47.32;99394.34;5142613;27;20054;-58
2021/08/20 09:38:55;;;;;;;4.95;3.85;;;;;;;25.43;47.93;99359.69;5120635;28;20053;-58
2021/08/20 09:41:45;;;;;;;4.88;3.80;;;;;;;25.67;48.44;99409.69;5122576;28;20382;-58
2021/08/20 09:44:31;;;;;;;7.38;3.92;;;;;;;25.12;45.54;99372.94;5123996;28;20066;-57
2021/08/20 09:47:17;;;;;;;6.38;4.13;;;;;;;25.16;45.95;99392.91;5117617;28;20339;-57
2021/08/20 09:50:03;;;;;;;4.90;3.75;;;;;;;25.28;46.64;99422.84;5124089;28;20031;-58
2021/08/20 09:52:50;;;;;;;8.60;3.60;;;;;;;24.90;46.44;99420.88;5122813;28;20027;-58
2021/08/20 09:55:40;;;;;;;7.72;4.20;;;;;;;25.18;47.03;99429.88;5123432;28;20024;-57
2021/08/20 09:58:27;;;;;;;5.82;3.97;;;;;;;25.37;47.73;99425.66;5116655;28;20106;-58
2021/08/20 10:01:12;;;;;;;5.35;3.50;;;;;;;25.19;45.40;99420.97;5124166;28;20041;-58
2021/08/20 10:04:01;;;;;;;7.13;3.40;;;;;;;24.89;45.48;99376.78;5122673;28;20027;-58
2021/08/20 10:06:48;;;;;;;3.90;3.40;;;;;;;25.20;45.36;99419.16;5119556;28;20032;-58
2021/08/20 10:09:37;;;;;;;3.50;3.20;;;;;;;24.90;44.24;99426.16;5116535;28;20027;-58
2021/08/20 10:12:25;;;;;;;5.40;3.50;;;;;;;25.29;45.19;99408.59;5123357;28;20258;-57
2021/08/20 10:15:15;;;;;;;7.45;3.92;;;;;;;25.25;46.90;99409.00;5137811;27;20031;-58
2021/08/20 10:18:03;;;;;;;8.07;4.07;;;;;;;25.32;47.17;99408.38;5130030;27;20034;-58
2021/08/20 10:20:50;;;;;;;7.72;3.78;;;;;;;25.23;47.13;99419.75;5122649;28;20089;-58
2021/08/20 10:23:36;;;;;;;5.60;3.75;;;;;;;25.25;45.46;99412.47;5124313;28;20040;-57
2021/08/20 10:26:24;;;;;;;8.68;3.65;;;;;;;25.23;45.65;99398.53;5122880;28;20030;-58
2021/08/20 10:29:10;;;;;;;5.15;3.28;;;;;;;25.21;46.93;99403.16;5103427;28;20034;-58
2021/08/20 10:31:58;;;;;;;6.75;4.00;;;;;;;25.06;46.07;99399.19;5118265;27;20096;-59
2021/08/20 10:34:44;;;;;;;5.20;3.75;;;;;;;25.36;45.50;99406.28;5143450;27;20084;-59
2021/08/20 10:37:31;;;;;;;5.28;3.53;;;;;;;25.25;44.50;99403.69;5134409;27;20036;-58
2021/08/20 10:40:23;;;;;;;4.75;3.25;;;;;;;25.23;43.97;99395.88;5123297;28;20024;-57
2021/08/20 10:43:47;;;;;;;4.57;3.42;;;;;;;25.06;43.52;99399.19;5125660;27;20068;-59
2021/08/20 10:46:33;;;;;;;8.43;3.60;;;;;;;25.09;44.21;99394.44;5117402;27;20096;-58
2021/08/20 10:49:20;;;;;;;8.90;3.60;;;;;;;24.97;43.85;99396.34;5133745;27;20318;-57
2021/08/20 10:52:06;;;;;;;5.15;3.42;;;;;;;25.04;44.72;99374.59;5123634;28;20026;-58
2021/08/20 10:54:54;;;;;;;5.15;3.55;;;;;;;25.22;46.42;99375.63;5123005;28;20081;-58
2021/08/20 10:57:42;;;;;;;6.75;3.47;;;;;;;25.07;43.14;99379.63;5116173;28;20059;-57
2021/08/20 11:00:30;;;;;;;5.47;3.50;;;;;;;25.02;44.56;99334.16;5112608;28;20055;-58
2021/08/20 11:03:16;;;;;;;3.88;3.13;;;;;;;25.40;46.16;99367.09;5122077;28;20263;-58
2021/08/20 11:06:02;;;;;;;7.40;4.13;;;;;;;25.37;46.61;99370.00;5122678;27;20031;-58
2021/08/20 11:08:48;;;;;;;7.95;4.60;;;;;;;25.38;47.20;99374.31;5119701;27;20081;-58
2021/08/20 11:11:44;;;;;;;5.97;3.33;;;;;;;25.25;44.37;99380.66;5126118;27;20047;-58
2021/08/20 11:14:32;;;;;;;6.50;3.60;;;;;;;24.98;43.50;99338.88;5125442;27;20088;-57
2021/08/20 11:17:47;;;;;;;4.40;3.40;;;;;;;25.31;44.41;99387.25;5126235;27;20027;-58
2021/08/20 11:20:47;;;;;;;4.65;3.50;;;;;;;25.32;45.88;99375.69;5133467;27;20026;-57
2021/08/20 11:24:09;;;;;;;6.72;4.07;;;;;;;25.16;45.58;99347.03;5125074;27;20065;-57
2021/08/20 11:27:13;;;;;;;3.88;3.30;;;;;;;24.79;45.08;99339.66;5138604;27;20072;-58
2021/08/20 11:30:00;;;;;;;5.15;3.40;;;;;;;25.05;45.08;99387.72;5122096;28;20324;-58
2021/08/20 11:33:13;;;;;;;7.72;3.80;;;;;;;25.19;46.78;99373.25;5122307;28;20019;-57
2021/08/20 11:36:01;;;;;;;9.45;3.95;;;;;;;24.96;45.80;99341.66;5121456;28;20015;-57
2021/08/20 11:38:53;;;;;;;5.78;3.80;;;;;;;25.32;46.16;99378.34;5104053;28;20051;-57
2021/08/20 11:41:44;;;;;;;6.35;3.75;;;;;;;25.19;46.68;99383.03;5106694;28;20098;-58
2021/08/20 11:44:30;;;;;;;5.85;4.10;;;;;;;25.18;46.90;99376.88;5140320;27;20236;-58
2021/08/20 11:47:16;;;;;;;28.08;19.83;;;;;;;25.23;46.33;99368.53;5135907;27;20032;-58
2021/08/20 11:50:07;;;;;;;5.28;3.95;;;;;;;25.26;45.65;99385.00;5137130;27;20027;-57
2021/08/20 11:52:53;;;;;;;5.23;3.70;;;;;;;25.27;48.88;99386.69;5141737;27;20090;-58
2021/08/20 18:38:12;;;;;;;8.63;5.38;;;;;;;23.13;57.84;99434.25;5006884;23;20054;-60
2021/08/20 18:40:58;;;;;;;9.80;5.63;;;;;;;23.06;58.27;99451.53;5002240;28;20310;-60
2021/08/20 18:43:44;;;;;;;5.97;4.82;;;;;;;23.13;58.00;99442.19;5002165;28;20026;-60
2021/08/20 18:46:30;;;;;;;6.65;5.20;;;;;;;23.18;58.44;99442.66;5001837;28;20060;-61
2021/08/20 18:49:16;;;;;;;8.57;4.93;;;;;;;23.16;59.07;99444.59;5001447;28;20034;-60
2021/08/20 18:52:03;;;;;;;9.90;5.70;;;;;;;23.04;59.51;99443.69;5002057;28;20208;-60
2021/08/20 18:54:50;;;;;;;10.95;6.07;;;;;;;23.09;60.82;99436.25;5001749;28;20211;-60
2021/08/20 18:57:36;;;;;;;8.43;5.75;;;;;;;23.01;60.94;99445.75;5001697;28;20631;-60
2021/08/20 19:00:22;;;;;;;8.75;6.40;;;;;;;23.00;61.40;99442.28;5001876;28;20088;-61
2021/08/20 19:03:07;;;;;;;10.55;6.13;;;;;;;22.93;61.47;99444.53;4987849;28;20038;-61
2021/08/20 19:05:53;;;;;;;9.80;6.57;;;;;;;22.78;63.13;99444.88;4982779;28;20081;-61
2021/08/20 19:08:39;;;;;;;10.00;6.47;;;;;;;22.72;62.91;99435.63;4993485;28;20049;-61
2021/08/20 19:11:25;;;;;;;10.77;6.28;;;;;;;22.72;62.06;99452.28;5001719;28;20393;-61
2021/08/20 19:14:11;;;;;;;9.70;6.03;;;;;;;22.77;nan;99441.38;5002080;28;20077;-60
2021/08/20 19:16:57;;;;;;;6.65;5.70;;;;;;;22.78;61.53;99445.72;5000809;28;20069;-60
2021/08/20 19:19:43;;;;;;;9.23;6.07;;;;;;;22.79;62.08;99444.75;4982294;28;20038;-59
2021/08/20 19:22:29;;;;;;;10.35;6.18;;;;;;;22.78;62.21;99451.00;4981800;28;20034;-60
2021/08/20 19:25:15;;;;;;;8.00;5.82;;;;;;;22.72;62.41;99447.00;4982159;28;20033;-61
2021/08/20 19:28:03;;;;;;;9.00;5.55;;;;;;;22.54;62.73;99425.47;4987597;28;20034;-61
2021/08/20 19:30:48;;;;;;;11.25;5.95;;;;;;;22.71;62.28;99439.22;5000956;28;20105;-59
2021/08/20 19:33:34;;;;;;;7.10;5.30;;;;;;;22.70;61.98;99437.53;5001940;28;20022;-60
2021/08/20 19:36:23;;;;;;;6.47;5.20;;;;;;;22.71;62.13;99436.56;5001070;28;20066;-60
2021/08/20 19:39:09;;;;;;;7.10;5.35;;;;;;;22.69;62.27;99430.59;5000517;28;20077;-60
2021/08/20 19:41:55;;;;;;;7.45;5.20;;;;;;;22.72;61.78;99440.91;5001505;28;20262;-61
2021/08/20 19:44:41;;;;;;;7.88;4.93;;;;;;;22.66;61.56;99439.56;5001060;28;20034;-59
2021/08/20 19:47:26;;;;;;;8.23;5.75;;;;;;;22.60;61.80;99436.53;5000630;28;20098;-58
2021/08/20 19:50:13;;;;;;;10.30;5.95;;;;;;;22.49;62.08;99424.16;5001469;28;20344;-60